sensor_id;sensor_type;location;lat;lon;timestamp;P1;durP1;ratioP1;P2;durP2;ratioP2
78344;SDS011;67620;51.134;6.548;2023-04-03T00:02:10;5.53;;;3.92;;
78344;SDS011;67620;51.134;6.548;2023-04-03T00:04:36;6.38;;;4.15;;
78344;SDS011;67620;51.134;6.548;2023-04-03T00:07:02;6.68;;;4.53;;
78344;SDS011;67620;51.134;6.548;2023-04-03T00:09:27;5.07;;;4.00;;
78344;SDS011;67620;51.134;6.548;2023-04-03T00:11:53;4.82;;;3.75;;
78344;SDS011;67620;51.134;6.548;2023-04-03T00:14:18;5.25;;;3.45;;
78344;SDS011;67620;51.134;6.548;2023-04-03T00:16:44;5.40;;;3.50;;
78344;SDS011;67620;51.134;6.548;2023-04-03T00:19:10;7.28;;;3.63;;
78344;SDS011;67620;51.134;6.548;2023-04-03T00:21:37;5.55;;;4.03;;
78344;SDS011;67620;51.134;6.548;2023-04-03T00:24:02;5.07;;;3.90;;
78344;SDS011;67620;51.134;6.548;2023-04-03T00:26:28;7.85;;;3.50;;
78344;SDS011;67620;51.134;6.548;2023-04-03T00:28:54;4.80;;;3.47;;
78344;SDS011;67620;51.134;6.548;2023-04-03T00:31:19;5.22;;;3.50;;
78344;SDS011;67620;51.134;6.548;2023-04-03T00:33:45;4.57;;;3.53;;
78344;SDS011;67620;51.134;6.548;2023-04-03T00:36:11;4.25;;;3.67;;
78344;SDS011;67620;51.134;6.548;2023-04-03T00:38:38;6.55;;;4.82;;
78344;SDS011;67620;51.134;6.548;2023-04-03T00:41:04;6.20;;;4.47;;
78344;SDS011;67620;51.134;6.548;2023-04-03T00:43:30;5.10;;;3.75;;
78344;SDS011;67620;51.134;6.548;2023-04-03T00:45:56;7.53;;;5.00;;
78344;SDS011;67620;51.134;6.548;2023-04-03T00:50:57;5.47;;;4.10;;
78344;SDS011;67620;51.134;6.548;2023-04-03T00:53:25;8.82;;;4.15;;
78344;SDS011;67620;51.134;6.548;2023-04-03T00:55:55;6.60;;;3.92;;
78344;SDS011;67620;51.134;6.548;2023-04-03T00:58:22;10.35;;;5.05;;
78344;SDS011;67620;51.134;6.548;2023-04-03T01:01:03;5.88;;;4.32;;
78344;SDS011;67620;51.134;6.548;2023-04-03T01:03:31;6.10;;;4.28;;
78344;SDS011;67620;51.134;6.548;2023-04-03T01:05:57;7.00;;;4.25;;
78344;SDS011;67620;51.134;6.548;2023-04-03T01:08:23;6.05;;;4.80;;
78344;SDS011;67620;51.134;6.548;2023-04-03T01:10:49;5.93;;;4.00;;
78344;SDS011;67620;51.134;6.548;2023-04-03T01:13:48;7.88;;;4.88;;
78344;SDS011;67620;51.134;6.548;2023-04-03T01:16:07;4.68;;;4.05;;
78344;SDS011;67620;51.134;6.548;2023-04-03T01:18:33;7.20;;;4.63;;
78344;SDS011;67620;51.134;6.548;2023-04-03T01:24:03;8.05;;;4.43;;
78344;SDS011;67620;51.134;6.548;2023-04-03T01:26:50;8.57;;;4.60;;
78344;SDS011;67620;51.134;6.548;2023-04-03T01:29:16;9.20;;;5.15;;
78344;SDS011;67620;51.134;6.548;2023-04-03T01:31:55;6.80;;;4.28;;
78344;SDS011;67620;51.134;6.548;2023-04-03T01:34:23;10.18;;;4.68;;
78344;SDS011;67620;51.134;6.548;2023-04-03T01:39:15;9.00;;;5.00;;
78344;SDS011;67620;51.134;6.548;2023-04-03T01:41:41;9.13;;;4.70;;
78344;SDS011;67620;51.134;6.548;2023-04-03T01:44:07;5.80;;;4.20;;
78344;SDS011;67620;51.134;6.548;2023-04-03T01:46:33;5.85;;;4.65;;
78344;SDS011;67620;51.134;6.548;2023-04-03T01:48:58;5.78;;;4.60;;
78344;SDS011;67620;51.134;6.548;2023-04-03T01:51:24;7.45;;;5.13;;
78344;SDS011;67620;51.134;6.548;2023-04-03T01:53:49;9.43;;;4.85;;
78344;SDS011;67620;51.134;6.548;2023-04-03T01:58:42;6.75;;;4.97;;
78344;SDS011;67620;51.134;6.548;2023-04-03T02:01:07;7.32;;;4.40;;
78344;SDS011;67620;51.134;6.548;2023-04-03T02:03:33;7.72;;;4.95;;
78344;SDS011;67620;51.134;6.548;2023-04-03T02:05:58;5.70;;;4.47;;
78344;SDS011;67620;51.134;6.548;2023-04-03T02:08:24;6.80;;;4.70;;
78344;SDS011;67620;51.134;6.548;2023-04-03T02:10:50;6.95;;;4.82;;
78344;SDS011;67620;51.134;6.548;2023-04-03T02:13:16;5.88;;;4.53;;
78344;SDS011;67620;51.134;6.548;2023-04-03T02:15:42;6.63;;;4.43;;
78344;SDS011;67620;51.134;6.548;2023-04-03T02:18:08;7.00;;;4.80;;
78344;SDS011;67620;51.134;6.548;2023-04-03T02:20:34;9.85;;;4.90;;
78344;SDS011;67620;51.134;6.548;2023-04-03T02:23:00;7.43;;;4.47;;
78344;SDS011;67620;51.134;6.548;2023-04-03T02:25:26;8.07;;;4.85;;
78344;SDS011;67620;51.134;6.548;2023-04-03T02:27:52;9.10;;;5.15;;
78344;SDS011;67620;51.134;6.548;2023-04-03T02:30:17;6.90;;;4.82;;
78344;SDS011;67620;51.134;6.548;2023-04-03T02:32:43;10.35;;;5.82;;
78344;SDS011;67620;51.134;6.548;2023-04-03T02:35:09;9.63;;;5.22;;
78344;SDS011;67620;51.134;6.548;2023-04-03T02:37:36;7.60;;;5.00;;
78344;SDS011;67620;51.134;6.548;2023-04-03T02:40:02;7.07;;;4.65;;
78344;SDS011;67620;51.134;6.548;2023-04-03T02:42:28;9.98;;;6.03;;
78344;SDS011;67620;51.134;6.548;2023-04-03T02:44:54;6.93;;;4.85;;
78344;SDS011;67620;51.134;6.548;2023-04-03T02:47:20;6.90;;;4.75;;
78344;SDS011;67620;51.134;6.548;2023-04-03T02:49:46;9.65;;;5.25;;
78344;SDS011;67620;51.134;6.548;2023-04-03T02:52:12;7.88;;;5.43;;
78344;SDS011;67620;51.134;6.548;2023-04-03T02:54:38;8.23;;;4.88;;
78344;SDS011;67620;51.134;6.548;2023-04-03T02:57:04;8.10;;;4.90;;
78344;SDS011;67620;51.134;6.548;2023-04-03T02:59:30;8.05;;;5.43;;
78344;SDS011;67620;51.134;6.548;2023-04-03T03:01:55;9.10;;;5.13;;
78344;SDS011;67620;51.134;6.548;2023-04-03T03:04:21;8.02;;;5.35;;
78344;SDS011;67620;51.134;6.548;2023-04-03T03:06:47;9.68;;;5.80;;
78344;SDS011;67620;51.134;6.548;2023-04-03T03:09:13;11.00;;;6.00;;
78344;SDS011;67620;51.134;6.548;2023-04-03T03:11:38;10.13;;;5.70;;
78344;SDS011;67620;51.134;6.548;2023-04-03T03:14:04;10.80;;;5.82;;
78344;SDS011;67620;51.134;6.548;2023-04-03T03:16:30;10.90;;;5.75;;
78344;SDS011;67620;51.134;6.548;2023-04-03T03:18:55;8.63;;;6.05;;
78344;SDS011;67620;51.134;6.548;2023-04-03T03:21:21;8.95;;;5.60;;
78344;SDS011;67620;51.134;6.548;2023-04-03T03:23:47;8.68;;;5.25;;
78344;SDS011;67620;51.134;6.548;2023-04-03T03:26:12;9.75;;;5.90;;
78344;SDS011;67620;51.134;6.548;2023-04-03T03:28:38;8.35;;;5.45;;
78344;SDS011;67620;51.134;6.548;2023-04-03T03:31:05;11.73;;;6.07;;
78344;SDS011;67620;51.134;6.548;2023-04-03T03:35:57;9.82;;;5.70;;
78344;SDS011;67620;51.134;6.548;2023-04-03T03:38:23;14.73;;;6.43;;
78344;SDS011;67620;51.134;6.548;2023-04-03T03:40:49;10.63;;;6.32;;
78344;SDS011;67620;51.134;6.548;2023-04-03T03:43:16;10.35;;;6.50;;
78344;SDS011;67620;51.134;6.548;2023-04-03T03:45:42;10.27;;;5.72;;
78344;SDS011;67620;51.134;6.548;2023-04-03T03:48:08;11.55;;;6.53;;
78344;SDS011;67620;51.134;6.548;2023-04-03T03:50:34;12.50;;;6.65;;
78344;SDS011;67620;51.134;6.548;2023-04-03T03:53:00;9.80;;;6.28;;
78344;SDS011;67620;51.134;6.548;2023-04-03T03:55:25;9.98;;;7.07;;
78344;SDS011;67620;51.134;6.548;2023-04-03T03:57:51;10.40;;;6.95;;
78344;SDS011;67620;51.134;6.548;2023-04-03T04:00:17;9.40;;;6.30;;
78344;SDS011;67620;51.134;6.548;2023-04-03T04:02:43;10.23;;;6.72;;
78344;SDS011;67620;51.134;6.548;2023-04-03T04:05:09;12.32;;;6.72;;
78344;SDS011;67620;51.134;6.548;2023-04-03T04:07:34;11.70;;;6.13;;
78344;SDS011;67620;51.134;6.548;2023-04-03T04:10:00;12.27;;;7.75;;
78344;SDS011;67620;51.134;6.548;2023-04-03T04:12:26;10.73;;;6.65;;
78344;SDS011;67620;51.134;6.548;2023-04-03T04:14:51;11.80;;;6.65;;
78344;SDS011;67620;51.134;6.548;2023-04-03T04:17:17;8.00;;;6.70;;
78344;SDS011;67620;51.134;6.548;2023-04-03T04:19:42;10.32;;;6.22;;
78344;SDS011;67620;51.134;6.548;2023-04-03T04:22:08;7.93;;;5.97;;
78344;SDS011;67620;51.134;6.548;2023-04-03T04:24:34;9.63;;;6.22;;
78344;SDS011;67620;51.134;6.548;2023-04-03T04:26:59;8.15;;;5.53;;
78344;SDS011;67620;51.134;6.548;2023-04-03T04:29:25;7.45;;;5.57;;
78344;SDS011;67620;51.134;6.548;2023-04-03T04:31:50;7.45;;;5.63;;
78344;SDS011;67620;51.134;6.548;2023-04-03T04:34:16;7.15;;;4.90;;
78344;SDS011;67620;51.134;6.548;2023-04-03T04:36:41;9.10;;;5.43;;
78344;SDS011;67620;51.134;6.548;2023-04-03T04:39:07;8.15;;;5.30;;
78344;SDS011;67620;51.134;6.548;2023-04-03T04:41:33;10.80;;;5.20;;
78344;SDS011;67620;51.134;6.548;2023-04-03T04:46:25;8.68;;;5.07;;
78344;SDS011;67620;51.134;6.548;2023-04-03T04:49:04;10.82;;;5.15;;
78344;SDS011;67620;51.134;6.548;2023-04-03T04:51:30;6.28;;;4.50;;
78344;SDS011;67620;51.134;6.548;2023-04-03T04:53:56;9.02;;;6.15;;
78344;SDS011;67620;51.134;6.548;2023-04-03T04:56:21;7.43;;;4.50;;
78344;SDS011;67620;51.134;6.548;2023-04-03T04:58:47;8.52;;;5.40;;
78344;SDS011;67620;51.134;6.548;2023-04-03T05:01:12;9.10;;;4.60;;
78344;SDS011;67620;51.134;6.548;2023-04-03T05:03:38;6.85;;;3.90;;
78344;SDS011;67620;51.134;6.548;2023-04-03T05:06:03;7.70;;;4.43;;
78344;SDS011;67620;51.134;6.548;2023-04-03T05:08:30;8.07;;;4.60;;
78344;SDS011;67620;51.134;6.548;2023-04-03T05:10:55;11.55;;;5.72;;
78344;SDS011;67620;51.134;6.548;2023-04-03T05:13:21;7.78;;;3.72;;
78344;SDS011;67620;51.134;6.548;2023-04-03T05:15:47;6.70;;;3.80;;
78344;SDS011;67620;51.134;6.548;2023-04-03T05:18:12;7.43;;;3.63;;
78344;SDS011;67620;51.134;6.548;2023-04-03T05:20:38;8.45;;;3.50;;
78344;SDS011;67620;51.134;6.548;2023-04-03T05:23:04;5.88;;;3.65;;
78344;SDS011;67620;51.134;6.548;2023-04-03T05:25:30;7.93;;;3.90;;
78344;SDS011;67620;51.134;6.548;2023-04-03T05:27:56;7.22;;;3.63;;
78344;SDS011;67620;51.134;6.548;2023-04-03T05:30:21;7.60;;;3.88;;
78344;SDS011;67620;51.134;6.548;2023-04-03T05:32:47;7.05;;;3.80;;
78344;SDS011;67620;51.134;6.548;2023-04-03T05:35:13;5.90;;;3.50;;
78344;SDS011;67620;51.134;6.548;2023-04-03T05:37:39;6.28;;;3.28;;
78344;SDS011;67620;51.134;6.548;2023-04-03T05:40:05;5.85;;;3.30;;
78344;SDS011;67620;51.134;6.548;2023-04-03T05:42:31;7.63;;;3.25;;
78344;SDS011;67620;51.134;6.548;2023-04-03T05:44:57;10.02;;;3.67;;
78344;SDS011;67620;51.134;6.548;2023-04-03T05:47:23;6.65;;;4.70;;
78344;SDS011;67620;51.134;6.548;2023-04-03T05:49:49;5.75;;;3.33;;
78344;SDS011;67620;51.134;6.548;2023-04-03T05:52:20;9.15;;;3.80;;
78344;SDS011;67620;51.134;6.548;2023-04-03T05:54:48;7.43;;;3.42;;
78344;SDS011;67620;51.134;6.548;2023-04-03T05:57:14;7.65;;;3.33;;
78344;SDS011;67620;51.134;6.548;2023-04-03T05:59:41;6.63;;;3.25;;
78344;SDS011;67620;51.134;6.548;2023-04-03T06:02:09;8.45;;;3.20;;
78344;SDS011;67620;51.134;6.548;2023-04-03T06:04:39;5.60;;;3.45;;
78344;SDS011;67620;51.134;6.548;2023-04-03T06:07:05;8.55;;;4.10;;
78344;SDS011;67620;51.134;6.548;2023-04-03T06:09:32;7.82;;;3.83;;
78344;SDS011;67620;51.134;6.548;2023-04-03T06:11:58;8.88;;;4.30;;
78344;SDS011;67620;51.134;6.548;2023-04-03T06:14:24;8.25;;;3.85;;
78344;SDS011;67620;51.134;6.548;2023-04-03T06:16:51;8.43;;;3.35;;
78344;SDS011;67620;51.134;6.548;2023-04-03T06:19:17;8.98;;;3.58;;
78344;SDS011;67620;51.134;6.548;2023-04-03T06:21:42;5.32;;;2.72;;
78344;SDS011;67620;51.134;6.548;2023-04-03T06:24:09;6.20;;;3.17;;
78344;SDS011;67620;51.134;6.548;2023-04-03T06:26:37;8.40;;;3.00;;
78344;SDS011;67620;51.134;6.548;2023-04-03T06:29:02;5.63;;;3.10;;
78344;SDS011;67620;51.134;6.548;2023-04-03T06:31:28;6.55;;;3.30;;
78344;SDS011;67620;51.134;6.548;2023-04-03T06:33:54;7.80;;;4.05;;
78344;SDS011;67620;51.134;6.548;2023-04-03T06:36:20;7.28;;;3.83;;
78344;SDS011;67620;51.134;6.548;2023-04-03T06:38:46;13.27;;;4.97;;
78344;SDS011;67620;51.134;6.548;2023-04-03T06:41:12;10.00;;;4.78;;
78344;SDS011;67620;51.134;6.548;2023-04-03T06:43:37;7.20;;;4.85;;
78344;SDS011;67620;51.134;6.548;2023-04-03T06:46:03;7.40;;;4.72;;
78344;SDS011;67620;51.134;6.548;2023-04-03T06:48:29;9.18;;;6.35;;
78344;SDS011;67620;51.134;6.548;2023-04-03T06:50:54;9.02;;;5.85;;
78344;SDS011;67620;51.134;6.548;2023-04-03T06:53:20;7.80;;;6.00;;
78344;SDS011;67620;51.134;6.548;2023-04-03T06:55:46;7.47;;;6.68;;
78344;SDS011;67620;51.134;6.548;2023-04-03T06:58:12;10.93;;;7.10;;
78344;SDS011;67620;51.134;6.548;2023-04-03T07:00:40;13.73;;;6.78;;
78344;SDS011;67620;51.134;6.548;2023-04-03T07:03:06;9.95;;;6.60;;
78344;SDS011;67620;51.134;6.548;2023-04-03T07:05:31;9.02;;;6.35;;
78344;SDS011;67620;51.134;6.548;2023-04-03T07:07:57;10.68;;;5.95;;
78344;SDS011;67620;51.134;6.548;2023-04-03T07:10:23;11.05;;;5.00;;
78344;SDS011;67620;51.134;6.548;2023-04-03T07:12:48;11.15;;;4.40;;
78344;SDS011;67620;51.134;6.548;2023-04-03T07:15:14;9.65;;;5.53;;
78344;SDS011;67620;51.134;6.548;2023-04-03T07:17:40;11.18;;;5.60;;
78344;SDS011;67620;51.134;6.548;2023-04-03T07:20:05;9.93;;;5.22;;
78344;SDS011;67620;51.134;6.548;2023-04-03T07:22:32;8.23;;;4.05;;
78344;SDS011;67620;51.134;6.548;2023-04-03T07:24:57;7.82;;;3.92;;
78344;SDS011;67620;51.134;6.548;2023-04-03T07:27:24;8.68;;;3.58;;
78344;SDS011;67620;51.134;6.548;2023-04-03T07:29:50;8.27;;;3.88;;
78344;SDS011;67620;51.134;6.548;2023-04-03T07:32:16;7.20;;;3.38;;
78344;SDS011;67620;51.134;6.548;2023-04-03T07:34:42;8.52;;;4.15;;
78344;SDS011;67620;51.134;6.548;2023-04-03T07:37:08;10.38;;;4.38;;
78344;SDS011;67620;51.134;6.548;2023-04-03T07:39:34;6.22;;;3.53;;
78344;SDS011;67620;51.134;6.548;2023-04-03T07:42:00;6.15;;;2.72;;
78344;SDS011;67620;51.134;6.548;2023-04-03T07:44:26;5.03;;;2.38;;
78344;SDS011;67620;51.134;6.548;2023-04-03T07:46:53;4.53;;;2.08;;
78344;SDS011;67620;51.134;6.548;2023-04-03T07:49:20;5.70;;;2.40;;
78344;SDS011;67620;51.134;6.548;2023-04-03T07:51:48;5.47;;;2.72;;
78344;SDS011;67620;51.134;6.548;2023-04-03T07:54:13;5.32;;;2.70;;
78344;SDS011;67620;51.134;6.548;2023-04-03T07:56:39;6.75;;;2.08;;
78344;SDS011;67620;51.134;6.548;2023-04-03T08:01:31;6.38;;;1.92;;
78344;SDS011;67620;51.134;6.548;2023-04-03T08:03:58;4.28;;;1.67;;
78344;SDS011;67620;51.134;6.548;2023-04-03T08:06:24;7.38;;;2.42;;
78344;SDS011;67620;51.134;6.548;2023-04-03T08:08:50;3.33;;;1.77;;
78344;SDS011;67620;51.134;6.548;2023-04-03T08:11:16;5.53;;;1.55;;
78344;SDS011;67620;51.134;6.548;2023-04-03T08:13:43;4.43;;;1.40;;
78344;SDS011;67620;51.134;6.548;2023-04-03T08:16:14;3.03;;;1.55;;
78344;SDS011;67620;51.134;6.548;2023-04-03T08:18:42;4.95;;;1.63;;
78344;SDS011;67620;51.134;6.548;2023-04-03T08:21:09;3.85;;;1.52;;
78344;SDS011;67620;51.134;6.548;2023-04-03T08:23:35;4.60;;;1.50;;
78344;SDS011;67620;51.134;6.548;2023-04-03T08:26:05;6.32;;;1.42;;
78344;SDS011;67620;51.134;6.548;2023-04-03T08:28:32;3.03;;;1.23;;
78344;SDS011;67620;51.134;6.548;2023-04-03T08:31:01;5.65;;;1.77;;
78344;SDS011;67620;51.134;6.548;2023-04-03T08:33:28;2.90;;;1.00;;
78344;SDS011;67620;51.134;6.548;2023-04-03T08:35:53;5.18;;;1.30;;
78344;SDS011;67620;51.134;6.548;2023-04-03T08:38:19;3.58;;;1.27;;
78344;SDS011;67620;51.134;6.548;2023-04-03T08:40:45;5.35;;;1.33;;
78344;SDS011;67620;51.134;6.548;2023-04-03T08:45:55;3.33;;;1.10;;
78344;SDS011;67620;51.134;6.548;2023-04-03T08:48:39;3.47;;;1.08;;
78344;SDS011;67620;51.134;6.548;2023-04-03T08:51:12;3.05;;;1.25;;
78344;SDS011;67620;51.134;6.548;2023-04-03T08:56:09;2.35;;;0.93;;
78344;SDS011;67620;51.134;6.548;2023-04-03T08:58:52;4.90;;;1.23;;
78344;SDS011;67620;51.134;6.548;2023-04-03T09:01:23;2.42;;;0.80;;
78344;SDS011;67620;51.134;6.548;2023-04-03T09:03:58;2.28;;;1.00;;
78344;SDS011;67620;51.134;6.548;2023-04-03T09:06:26;2.75;;;0.95;;
78344;SDS011;67620;51.134;6.548;2023-04-03T09:14:39;3.58;;;1.40;;
78344;SDS011;67620;51.134;6.548;2023-04-03T09:19:58;3.78;;;0.90;;
78344;SDS011;67620;51.134;6.548;2023-04-03T09:22:36;4.03;;;0.82;;
78344;SDS011;67620;51.134;6.548;2023-04-03T09:25:13;3.05;;;0.70;;
78344;SDS011;67620;51.134;6.548;2023-04-03T09:27:41;4.15;;;1.10;;
78344;SDS011;67620;51.134;6.548;2023-04-03T09:30:18;1.38;;;0.65;;
78344;SDS011;67620;51.134;6.548;2023-04-03T09:32:49;4.88;;;1.10;;
78344;SDS011;67620;51.134;6.548;2023-04-03T09:35:18;4.40;;;1.13;;
78344;SDS011;67620;51.134;6.548;2023-04-03T09:37:53;3.20;;;0.80;;
78344;SDS011;67620;51.134;6.548;2023-04-03T09:42:50;3.00;;;1.00;;
78344;SDS011;67620;51.134;6.548;2023-04-03T09:45:30;3.75;;;1.02;;
78344;SDS011;67620;51.134;6.548;2023-04-03T09:48:08;2.30;;;1.00;;
78344;SDS011;67620;51.134;6.548;2023-04-03T09:50:37;3.42;;;0.98;;
78344;SDS011;67620;51.134;6.548;2023-04-03T09:53:05;3.22;;;1.30;;
78344;SDS011;67620;51.134;6.548;2023-04-03T09:55:50;5.00;;;1.00;;
78344;SDS011;67620;51.134;6.548;2023-04-03T09:58:26;5.85;;;1.20;;
78344;SDS011;67620;51.134;6.548;2023-04-03T10:00:58;4.10;;;1.10;;
78344;SDS011;67620;51.134;6.548;2023-04-03T10:03:33;4.38;;;1.00;;
78344;SDS011;67620;51.134;6.548;2023-04-03T10:06:01;4.18;;;1.20;;
78344;SDS011;67620;51.134;6.548;2023-04-03T10:08:30;2.95;;;0.95;;
78344;SDS011;67620;51.134;6.548;2023-04-03T10:11:16;3.25;;;1.00;;
78344;SDS011;67620;51.134;6.548;2023-04-03T10:14:00;2.63;;;1.10;;
78344;SDS011;67620;51.134;6.548;2023-04-03T10:19:42;2.95;;;1.05;;
78344;SDS011;67620;51.134;6.548;2023-04-03T10:27:52;2.25;;;1.00;;
78344;SDS011;67620;51.134;6.548;2023-04-03T10:36:27;2.80;;;0.90;;
78344;SDS011;67620;51.134;6.548;2023-04-03T10:39:57;1.60;;;0.88;;
78344;SDS011;67620;51.134;6.548;2023-04-03T10:47:50;3.45;;;0.85;;
78344;SDS011;67620;51.134;6.548;2023-04-03T10:50:42;1.75;;;0.90;;
78344;SDS011;67620;51.134;6.548;2023-04-03T10:53:21;4.00;;;1.00;;
78344;SDS011;67620;51.134;6.548;2023-04-03T10:59:14;3.15;;;0.88;;
78344;SDS011;67620;51.134;6.548;2023-04-03T11:02:35;3.92;;;0.98;;
78344;SDS011;67620;51.134;6.548;2023-04-03T11:04:54;4.07;;;1.25;;
78344;SDS011;67620;51.134;6.548;2023-04-03T11:07:25;2.25;;;0.93;;
78344;SDS011;67620;51.134;6.548;2023-04-03T11:09:58;2.60;;;1.02;;
78344;SDS011;67620;51.134;6.548;2023-04-03T11:13:08;4.20;;;0.77;;
78344;SDS011;67620;51.134;6.548;2023-04-03T11:15:41;1.92;;;0.82;;
78344;SDS011;67620;51.134;6.548;2023-04-03T11:18:22;1.92;;;0.98;;
78344;SDS011;67620;51.134;6.548;2023-04-03T11:20:59;2.85;;;1.00;;
78344;SDS011;67620;51.134;6.548;2023-04-03T11:23:30;3.22;;;0.80;;
78344;SDS011;67620;51.134;6.548;2023-04-03T11:28:33;1.98;;;0.90;;
78344;SDS011;67620;51.134;6.548;2023-04-03T11:31:13;3.22;;;1.05;;
78344;SDS011;67620;51.134;6.548;2023-04-03T11:36:41;3.20;;;1.10;;
78344;SDS011;67620;51.134;6.548;2023-04-03T11:41:46;3.83;;;1.27;;
78344;SDS011;67620;51.134;6.548;2023-04-03T11:47:04;3.25;;;0.85;;
78344;SDS011;67620;51.134;6.548;2023-04-03T12:05:55;3.88;;;0.95;;
78344;SDS011;67620;51.134;6.548;2023-04-03T12:11:14;2.80;;;0.93;;
78344;SDS011;67620;51.134;6.548;2023-04-03T12:16:21;2.20;;;0.85;;
78344;SDS011;67620;51.134;6.548;2023-04-03T12:19:04;4.22;;;1.02;;
78344;SDS011;67620;51.134;6.548;2023-04-03T12:32:41;2.40;;;0.90;;
78344;SDS011;67620;51.134;6.548;2023-04-03T12:35:30;1.83;;;0.65;;
78344;SDS011;67620;51.134;6.548;2023-04-03T12:43:50;1.50;;;0.73;;
78344;SDS011;67620;51.134;6.548;2023-04-03T12:46:28;3.28;;;1.02;;
78344;SDS011;67620;51.134;6.548;2023-04-03T12:51:56;1.77;;;0.60;;
78344;SDS011;67620;51.134;6.548;2023-04-03T12:54:23;1.88;;;0.73;;
78344;SDS011;67620;51.134;6.548;2023-04-03T12:57:11;1.95;;;0.60;;
78344;SDS011;67620;51.134;6.548;2023-04-03T12:59:41;2.05;;;0.60;;
78344;SDS011;67620;51.134;6.548;2023-04-03T13:04:49;2.33;;;0.70;;
78344;SDS011;67620;51.134;6.548;2023-04-03T13:07:27;2.17;;;0.60;;
78344;SDS011;67620;51.134;6.548;2023-04-03T13:09:59;2.72;;;1.00;;
78344;SDS011;67620;51.134;6.548;2023-04-03T13:12:31;3.28;;;0.80;;
78344;SDS011;67620;51.134;6.548;2023-04-03T13:14:58;2.85;;;0.90;;
78344;SDS011;67620;51.134;6.548;2023-04-03T13:17:26;2.22;;;0.63;;
78344;SDS011;67620;51.134;6.548;2023-04-03T13:19:53;2.35;;;0.90;;
78344;SDS011;67620;51.134;6.548;2023-04-03T13:25:08;2.17;;;0.73;;
78344;SDS011;67620;51.134;6.548;2023-04-03T13:27:38;3.90;;;0.90;;
78344;SDS011;67620;51.134;6.548;2023-04-03T13:30:17;3.10;;;0.88;;
78344;SDS011;67620;51.134;6.548;2023-04-03T13:32:56;1.60;;;0.60;;
78344;SDS011;67620;51.134;6.548;2023-04-03T13:35:28;5.45;;;0.80;;
78344;SDS011;67620;51.134;6.548;2023-04-03T13:38:19;2.25;;;0.80;;
78344;SDS011;67620;51.134;6.548;2023-04-03T13:40:52;4.57;;;0.82;;
78344;SDS011;67620;51.134;6.548;2023-04-03T13:43:21;5.00;;;0.82;;
78344;SDS011;67620;51.134;6.548;2023-04-03T13:46:04;2.22;;;0.93;;
78344;SDS011;67620;51.134;6.548;2023-04-03T13:48:40;2.22;;;0.80;;
78344;SDS011;67620;51.134;6.548;2023-04-03T13:53:58;2.63;;;0.80;;
78344;SDS011;67620;51.134;6.548;2023-04-03T14:01:50;2.72;;;0.90;;
78344;SDS011;67620;51.134;6.548;2023-04-03T14:04:29;2.95;;;0.90;;
78344;SDS011;67620;51.134;6.548;2023-04-03T14:06:56;2.45;;;1.05;;
78344;SDS011;67620;51.134;6.548;2023-04-03T14:09:23;2.03;;;0.65;;
78344;SDS011;67620;51.134;6.548;2023-04-03T14:11:52;5.97;;;1.20;;
78344;SDS011;67620;51.134;6.548;2023-04-03T14:14:21;2.55;;;0.98;;
78344;SDS011;67620;51.134;6.548;2023-04-03T14:16:52;3.85;;;1.00;;
78344;SDS011;67620;51.134;6.548;2023-04-03T14:19:24;3.95;;;1.38;;
78344;SDS011;67620;51.134;6.548;2023-04-03T14:21:53;2.85;;;1.17;;
78344;SDS011;67620;51.134;6.548;2023-04-03T14:24:19;3.97;;;1.02;;
78344;SDS011;67620;51.134;6.548;2023-04-03T14:26:46;2.20;;;1.15;;
78344;SDS011;67620;51.134;6.548;2023-04-03T14:29:12;2.00;;;0.88;;
78344;SDS011;67620;51.134;6.548;2023-04-03T14:31:39;1.75;;;0.80;;
78344;SDS011;67620;51.134;6.548;2023-04-03T14:34:06;3.08;;;0.77;;
78344;SDS011;67620;51.134;6.548;2023-04-03T14:36:33;1.95;;;0.70;;
78344;SDS011;67620;51.134;6.548;2023-04-03T14:38:59;3.70;;;1.27;;
78344;SDS011;67620;51.134;6.548;2023-04-03T14:43:51;1.80;;;0.80;;
78344;SDS011;67620;51.134;6.548;2023-04-03T14:46:28;3.10;;;1.27;;
78344;SDS011;67620;51.134;6.548;2023-04-03T14:48:56;3.38;;;0.93;;
78344;SDS011;67620;51.134;6.548;2023-04-03T14:51:22;1.90;;;0.93;;
78344;SDS011;67620;51.134;6.548;2023-04-03T14:53:48;4.68;;;1.30;;
78344;SDS011;67620;51.134;6.548;2023-04-03T14:56:18;4.22;;;0.98;;
78344;SDS011;67620;51.134;6.548;2023-04-03T14:58:48;4.53;;;1.20;;
78344;SDS011;67620;51.134;6.548;2023-04-03T15:01:17;1.83;;;0.93;;
78344;SDS011;67620;51.134;6.548;2023-04-03T15:03:43;3.35;;;0.98;;
78344;SDS011;67620;51.134;6.548;2023-04-03T15:06:10;4.68;;;1.25;;
78344;SDS011;67620;51.134;6.548;2023-04-03T15:08:37;2.55;;;1.10;;
78344;SDS011;67620;51.134;6.548;2023-04-03T15:11:03;4.18;;;1.20;;
78344;SDS011;67620;51.134;6.548;2023-04-03T15:13:30;3.17;;;0.88;;
78344;SDS011;67620;51.134;6.548;2023-04-03T15:15:55;3.03;;;0.80;;
78344;SDS011;67620;51.134;6.548;2023-04-03T15:18:25;3.13;;;0.90;;
78344;SDS011;67620;51.134;6.548;2023-04-03T15:20:52;2.65;;;0.82;;
78344;SDS011;67620;51.134;6.548;2023-04-03T15:23:19;3.45;;;1.10;;
78344;SDS011;67620;51.134;6.548;2023-04-03T15:25:45;3.08;;;1.00;;
78344;SDS011;67620;51.134;6.548;2023-04-03T15:28:19;1.95;;;0.88;;
78344;SDS011;67620;51.134;6.548;2023-04-03T15:30:52;4.82;;;1.00;;
78344;SDS011;67620;51.134;6.548;2023-04-03T15:33:19;2.60;;;0.85;;
78344;SDS011;67620;51.134;6.548;2023-04-03T15:35:45;2.75;;;0.75;;
78344;SDS011;67620;51.134;6.548;2023-04-03T15:38:10;3.83;;;1.30;;
78344;SDS011;67620;51.134;6.548;2023-04-03T15:40:36;3.08;;;1.10;;
78344;SDS011;67620;51.134;6.548;2023-04-03T15:43:02;4.18;;;1.40;;
78344;SDS011;67620;51.134;6.548;2023-04-03T15:45:29;3.72;;;1.02;;
78344;SDS011;67620;51.134;6.548;2023-04-03T15:47:55;5.43;;;1.90;;
78344;SDS011;67620;51.134;6.548;2023-04-03T15:50:22;6.05;;;2.65;;
78344;SDS011;67620;51.134;6.548;2023-04-03T15:52:48;7.68;;;2.20;;
78344;SDS011;67620;51.134;6.548;2023-04-03T15:55:19;8.10;;;2.17;;
78344;SDS011;67620;51.134;6.548;2023-04-03T15:57:52;3.13;;;1.48;;
78344;SDS011;67620;51.134;6.548;2023-04-03T16:21:00;7.70;;;1.60;;
78344;SDS011;67620;51.134;6.548;2023-04-03T16:23:25;7.07;;;2.20;;
78344;SDS011;67620;51.134;6.548;2023-04-03T16:25:51;4.78;;;1.30;;
78344;SDS011;67620;51.134;6.548;2023-04-03T16:28:17;1.55;;;0.70;;
78344;SDS011;67620;51.134;6.548;2023-04-03T16:30:43;3.58;;;0.88;;
78344;SDS011;67620;51.134;6.548;2023-04-03T16:33:10;2.90;;;0.90;;
78344;SDS011;67620;51.134;6.548;2023-04-03T16:35:36;3.88;;;1.27;;
78344;SDS011;67620;51.134;6.548;2023-04-03T16:38:02;3.50;;;0.90;;
78344;SDS011;67620;51.134;6.548;2023-04-03T16:40:28;5.03;;;1.42;;
78344;SDS011;67620;51.134;6.548;2023-04-03T16:42:54;23.30;;;12.13;;
78344;SDS011;67620;51.134;6.548;2023-04-03T16:45:20;5.20;;;1.30;;
78344;SDS011;67620;51.134;6.548;2023-04-03T16:47:45;6.20;;;1.23;;
78344;SDS011;67620;51.134;6.548;2023-04-03T16:50:11;2.80;;;1.05;;
78344;SDS011;67620;51.134;6.548;2023-04-03T16:52:36;3.17;;;1.10;;
78344;SDS011;67620;51.134;6.548;2023-04-03T16:55:02;2.42;;;1.05;;
78344;SDS011;67620;51.134;6.548;2023-04-03T16:57:28;1.88;;;0.82;;
78344;SDS011;67620;51.134;6.548;2023-04-03T16:59:53;5.30;;;1.05;;
78344;SDS011;67620;51.134;6.548;2023-04-03T17:02:20;3.20;;;0.88;;
78344;SDS011;67620;51.134;6.548;2023-04-03T17:04:49;2.42;;;0.77;;
78344;SDS011;67620;51.134;6.548;2023-04-03T17:07:16;1.90;;;0.70;;
78344;SDS011;67620;51.134;6.548;2023-04-03T17:12:08;2.92;;;1.05;;
78344;SDS011;67620;51.134;6.548;2023-04-03T17:14:33;3.70;;;1.00;;
78344;SDS011;67620;51.134;6.548;2023-04-03T17:16:59;6.15;;;1.42;;
78344;SDS011;67620;51.134;6.548;2023-04-03T17:19:25;3.60;;;1.10;;
78344;SDS011;67620;51.134;6.548;2023-04-03T17:21:51;5.85;;;1.10;;
78344;SDS011;67620;51.134;6.548;2023-04-03T17:24:17;5.68;;;1.27;;